createdAt,value
2022-11-05T00:02:20.337Z,10.77
2022-11-05T00:05:01.073Z,10.47
2022-11-05T00:07:51.488Z,10.77
2022-11-05T00:10:24.347Z,8.47
2022-11-05T00:13:04.642Z,11.53
2022-11-05T00:15:45.664Z,9.27
2022-11-05T00:18:07.725Z,8.67
2022-11-05T00:20:29.768Z,8.77
2022-11-05T00:23:27.774Z,11.50
2022-11-05T00:26:05.333Z,9.27
2022-11-05T00:28:30.084Z,7.57
2022-11-05T00:30:52.583Z,10.30
2022-11-05T00:33:15.047Z,6.67
2022-11-05T00:35:36.821Z,5.30
2022-11-05T00:37:58.588Z,4.80
2022-11-05T00:40:20.575Z,5.87
2022-11-05T00:43:01.888Z,4.73
2022-11-05T00:45:23.746Z,5.33
2022-11-05T00:48:04.039Z,3.90
2022-11-05T00:50:27.620Z,5.27
2022-11-05T00:52:58.777Z,5.38
2022-11-05T00:55:20.825Z,3.93
2022-11-05T00:57:42.655Z,4.60
2022-11-05T01:00:05.140Z,3.63
2022-11-05T01:02:27.228Z,4.87
2022-11-05T01:04:48.996Z,4.53
2022-11-05T01:07:10.858Z,6.93
2022-11-05T01:09:32.618Z,6.90
2022-11-05T01:11:55.779Z,8.07
2022-11-05T01:14:17.687Z,4.50
2022-11-05T01:16:40.743Z,7.13
2022-11-05T01:19:06.565Z,7.63
2022-11-05T01:21:28.505Z,8.53
2022-11-05T01:23:50.349Z,6.80
2022-11-05T01:26:12.687Z,5.97
2022-11-05T01:28:34.570Z,4.87
2022-11-05T01:30:57.344Z,5.10
2022-11-05T01:33:19.288Z,5.63
2022-11-05T01:35:41.069Z,7.80
2022-11-05T01:38:02.959Z,6.73
2022-11-05T01:40:25.892Z,6.13
2022-11-05T01:42:48.175Z,5.57
2022-11-05T01:45:36.706Z,6.97
2022-11-05T01:48:15.332Z,6.17
2022-11-05T01:50:42.579Z,7.10
2022-11-05T01:53:36.941Z,7.80
2022-11-05T01:56:18.029Z,5.70
2022-11-05T01:58:53.146Z,6.63
2022-11-05T02:01:16.303Z,7.30
2022-11-05T02:03:40.000Z,7.10
2022-11-05T02:06:04.080Z,7.53
2022-11-05T02:08:48.733Z,7.85
2022-11-05T02:11:17.293Z,6.68
2022-11-05T02:13:39.145Z,5.63
2022-11-05T02:16:22.162Z,7.30
2022-11-05T02:19:07.752Z,8.30
2022-11-05T02:22:10.167Z,9.77
2022-11-05T02:24:49.472Z,7.43
2022-11-05T02:27:32.482Z,7.23
2022-11-05T02:30:22.175Z,11.60
2022-11-05T02:33:07.999Z,8.50
2022-11-05T02:36:02.441Z,7.97
2022-11-05T02:39:10.472Z,8.93
2022-11-05T02:42:05.212Z,8.97
2022-11-05T02:44:39.757Z,12.55
2022-11-05T02:47:29.412Z,10.88
2022-11-05T02:49:59.349Z,8.83
2022-11-05T02:52:47.337Z,8.40
2022-11-05T02:55:27.476Z,8.33
2022-11-05T02:57:49.351Z,9.03
2022-11-05T03:00:42.511Z,10.10
2022-11-05T03:03:12.314Z,11.03
2022-11-05T03:05:47.377Z,9.90
2022-11-05T03:11:13.465Z,10.20
2022-11-05T03:13:54.418Z,9.63
2022-11-05T03:16:28.345Z,8.40
2022-11-05T03:19:28.585Z,9.82
2022-11-05T03:22:02.604Z,7.37
2022-11-05T03:24:31.883Z,10.38
2022-11-05T03:27:08.873Z,9.87
2022-11-05T03:29:38.892Z,11.93
2022-11-05T03:32:05.171Z,11.60
2022-11-05T03:34:38.468Z,9.63
2022-11-05T03:37:04.067Z,10.07
2022-11-05T03:39:36.069Z,10.33
2022-11-05T03:42:00.709Z,9.70
2022-11-05T03:46:53.152Z,12.63
2022-11-05T03:49:30.122Z,10.07
2022-11-05T03:52:01.627Z,12.43
2022-11-05T03:54:23.646Z,9.97
2022-11-05T03:57:00.556Z,13.37
2022-11-05T03:59:23.439Z,12.07
2022-11-05T04:01:45.646Z,11.60
2022-11-05T04:04:09.091Z,13.23
2022-11-05T04:06:49.447Z,14.63
2022-11-05T04:09:29.742Z,12.47
2022-11-05T04:12:09.960Z,12.37
2022-11-05T04:14:31.755Z,15.93
2022-11-05T04:17:11.468Z,10.33
2022-11-05T04:20:12.040Z,13.27
2022-11-05T04:22:54.356Z,12.30
2022-11-05T04:25:17.995Z,14.50
2022-11-05T04:27:40.171Z,12.90
2022-11-05T04:30:21.553Z,10.67
2022-11-05T04:32:43.562Z,12.00
2022-11-05T04:35:05.786Z,11.57
2022-11-05T04:37:27.657Z,11.27
2022-11-05T04:39:49.487Z,18.00
2022-11-05T04:42:11.225Z,12.13
2022-11-05T04:44:32.975Z,15.17
2022-11-05T04:46:54.768Z,11.97
2022-11-05T04:49:16.759Z,10.70
2022-11-05T04:51:38.523Z,11.60
2022-11-05T04:54:00.395Z,14.40
2022-11-05T04:56:24.707Z,14.87
2022-11-05T04:58:47.202Z,12.60
2022-11-05T05:01:19.224Z,14.70
2022-11-05T05:03:41.535Z,16.80
2022-11-05T05:06:04.102Z,13.97
2022-11-05T05:08:26.085Z,14.47
2022-11-05T05:10:47.853Z,14.87
2022-11-05T05:13:12.141Z,14.03
2022-11-05T05:17:56.610Z,13.30
2022-11-05T05:20:52.076Z,14.27
2022-11-05T05:23:14.141Z,18.23
2022-11-05T05:25:36.263Z,13.90
2022-11-05T05:28:55.656Z,14.70
2022-11-05T05:32:46.709Z,18.07
2022-11-05T05:39:54.197Z,16.70
2022-11-05T05:47:54.425Z,15.67
2022-11-05T05:51:03.268Z,16.77
2022-11-05T05:53:45.390Z,17.73
2022-11-05T05:56:09.673Z,17.23
2022-11-05T05:58:38.170Z,16.93
2022-11-05T06:01:20.139Z,19.50
2022-11-05T06:09:54.694Z,17.43
2022-11-05T06:12:17.298Z,18.00
2022-11-05T06:14:39.178Z,19.03
2022-11-05T06:17:01.363Z,21.00
2022-11-05T06:19:24.223Z,19.83
2022-11-05T06:21:47.704Z,19.38
2022-11-05T06:24:10.385Z,18.10
2022-11-05T06:26:32.395Z,16.47
2022-11-05T06:28:54.385Z,20.17
2022-11-05T06:31:16.455Z,16.23
2022-11-05T06:33:39.459Z,18.07
2022-11-05T06:36:03.246Z,22.83
2022-11-05T06:38:26.801Z,20.20
2022-11-05T06:42:47.056Z,24.70
2022-11-05T06:45:11.053Z,18.03
2022-11-05T06:47:33.038Z,17.67
2022-11-05T06:50:10.011Z,20.40
2022-11-05T06:52:39.897Z,21.40
2022-11-05T06:55:06.067Z,18.33
2022-11-05T06:59:49.785Z,20.63
2022-11-05T07:02:13.630Z,20.83
2022-11-05T07:04:36.360Z,25.42
2022-11-05T07:07:01.861Z,19.90
2022-11-05T07:09:24.134Z,18.00
2022-11-05T07:11:46.192Z,18.97
2022-11-05T07:14:08.152Z,18.97
2022-11-05T07:16:30.495Z,21.83
2022-11-05T07:18:52.981Z,16.73
2022-11-05T07:21:15.383Z,23.83
2022-11-05T07:23:37.443Z,19.27
2022-11-05T07:26:00.031Z,19.40
2022-11-05T07:28:21.977Z,21.30
2022-11-05T07:30:44.170Z,20.03
2022-11-05T07:33:06.515Z,18.73
2022-11-05T07:35:28.805Z,19.13
2022-11-05T07:37:54.010Z,20.57
2022-11-05T07:40:19.378Z,20.83
2022-11-05T07:42:46.715Z,19.50
2022-11-05T07:45:09.465Z,17.13
2022-11-05T07:47:31.288Z,18.57
2022-11-05T07:49:53.128Z,17.70
2022-11-05T07:52:15.054Z,20.83
2022-11-05T07:54:36.928Z,17.23
2022-11-05T07:56:58.803Z,16.17
2022-11-05T07:59:20.738Z,16.63
2022-11-05T08:01:42.684Z,19.53
2022-11-05T08:04:04.778Z,15.00
2022-11-05T08:06:26.663Z,16.10
2022-11-05T08:08:48.545Z,15.07
2022-11-05T08:11:12.425Z,15.97
2022-11-05T08:13:35.206Z,13.02
2022-11-05T08:15:58.115Z,14.77
2022-11-05T08:18:19.969Z,14.30
2022-11-05T08:20:44.389Z,15.07
2022-11-05T08:25:28.760Z,15.83
2022-11-05T08:28:19.935Z,12.33
2022-11-05T08:30:42.082Z,13.67
2022-11-05T08:33:08.296Z,13.90
2022-11-05T08:35:30.682Z,13.93
2022-11-05T08:38:00.731Z,14.13
2022-11-05T08:40:22.686Z,14.37
2022-11-05T08:42:44.558Z,12.23
2022-11-05T08:45:07.174Z,14.33
2022-11-05T08:47:30.085Z,12.57
2022-11-05T08:49:52.178Z,13.90
2022-11-05T08:52:14.019Z,13.00
2022-11-05T08:54:36.183Z,13.17
2022-11-05T08:56:58.130Z,12.60
2022-11-05T08:59:20.184Z,13.83
2022-11-05T09:01:42.224Z,11.60
2022-11-05T09:04:04.533Z,15.37
2022-11-05T09:06:26.486Z,13.93
2022-11-05T09:08:48.416Z,11.57
2022-11-05T09:11:11.099Z,10.87
2022-11-05T09:13:33.576Z,14.43
2022-11-05T09:15:58.092Z,11.53
2022-11-05T09:20:43.404Z,12.67
2022-11-05T09:23:05.554Z,13.73
2022-11-05T09:25:27.587Z,12.93
2022-11-05T09:27:50.014Z,12.40
2022-11-05T09:30:14.175Z,13.30
2022-11-05T09:32:36.056Z,10.80
2022-11-05T09:35:00.291Z,11.43
2022-11-05T09:37:22.179Z,11.27
2022-11-05T09:39:44.089Z,11.83
2022-11-05T09:42:09.604Z,12.10
2022-11-05T09:44:47.670Z,13.33
2022-11-05T09:47:30.020Z,12.67
2022-11-05T09:49:56.968Z,9.97
2022-11-05T09:52:23.786Z,12.77
2022-11-05T09:54:48.076Z,10.17
2022-11-05T09:57:21.179Z,14.18
2022-11-05T09:59:50.127Z,11.10
2022-11-05T10:02:18.324Z,18.63
2022-11-05T10:04:45.044Z,12.97
2022-11-05T10:07:14.514Z,11.87
2022-11-05T10:09:47.847Z,11.63
2022-11-05T10:12:22.949Z,11.00
2022-11-05T10:14:55.192Z,11.17
2022-11-05T10:17:26.904Z,12.10
2022-11-05T10:20:20.749Z,10.90
2022-11-05T10:22:48.177Z,9.80
2022-11-05T10:25:21.605Z,14.33
2022-11-05T10:27:52.081Z,11.50
2022-11-05T10:30:15.228Z,10.10
2022-11-05T10:32:41.591Z,8.90
2022-11-05T10:35:08.744Z,11.07
2022-11-05T10:37:37.012Z,10.67
2022-11-05T10:40:01.966Z,8.77
2022-11-05T10:43:03.365Z,10.63
2022-11-05T10:46:23.853Z,9.43
2022-11-05T10:48:57.120Z,8.73
2022-11-05T10:51:19.477Z,9.07
2022-11-05T10:53:58.703Z,11.93
2022-11-05T10:56:40.744Z,8.80
2022-11-05T10:59:10.945Z,11.03
2022-11-05T11:01:34.321Z,8.90
2022-11-05T11:04:22.168Z,11.10
2022-11-05T11:06:51.085Z,9.07
2022-11-05T11:09:27.547Z,10.10
2022-11-05T11:12:23.811Z,15.60
2022-11-05T11:15:24.586Z,11.43
2022-11-05T11:17:47.000Z,9.30
2022-11-05T11:20:31.883Z,8.80
2022-11-05T11:23:01.027Z,9.38
2022-11-05T11:25:30.486Z,10.53
2022-11-05T11:27:53.257Z,8.07
2022-11-05T11:30:20.595Z,14.73
2022-11-05T11:32:43.040Z,9.17
2022-11-05T11:35:18.482Z,8.67
2022-11-05T11:37:42.180Z,11.10
2022-11-05T11:40:20.528Z,8.45
2022-11-05T11:42:55.707Z,8.00
2022-11-05T11:45:30.166Z,9.77
2022-11-05T11:47:52.168Z,7.88
2022-11-05T11:50:43.086Z,8.13
2022-11-05T11:53:24.491Z,10.07
2022-11-05T11:55:55.708Z,9.03
2022-11-05T11:58:17.482Z,9.40
2022-11-05T12:00:50.769Z,8.37
2022-11-05T12:03:53.148Z,10.80
2022-11-05T12:06:24.031Z,9.53
2022-11-05T12:09:06.231Z,10.43
2022-11-05T12:11:50.387Z,10.20
2022-11-05T12:14:36.407Z,9.50
2022-11-05T12:17:22.412Z,10.60
2022-11-05T12:20:11.956Z,11.23
2022-11-05T12:22:54.289Z,11.60
2022-11-05T12:25:48.702Z,9.60
2022-11-05T12:29:17.333Z,11.90
2022-11-05T12:31:51.918Z,11.07
2022-11-05T12:34:58.300Z,12.70
2022-11-05T12:37:55.709Z,11.83
2022-11-05T12:41:11.781Z,11.73
2022-11-05T12:43:42.648Z,9.68
2022-11-05T12:46:29.263Z,12.47
2022-11-05T12:49:22.355Z,12.23
2022-11-05T12:52:07.295Z,11.97
2022-11-05T12:55:11.110Z,12.10
2022-11-05T12:57:40.886Z,10.57
2022-11-05T13:00:16.753Z,10.70
2022-11-05T13:03:01.383Z,14.23
2022-11-05T13:05:42.900Z,11.25
2022-11-05T13:08:29.190Z,9.63
2022-11-05T13:11:19.933Z,11.80
2022-11-05T13:13:52.821Z,13.77
2022-11-05T13:16:37.645Z,9.43
2022-11-05T13:19:30.187Z,12.07
2022-11-05T13:22:09.512Z,9.57
2022-11-05T13:24:42.207Z,10.23
2022-11-05T13:27:41.636Z,11.40
2022-11-05T13:30:07.386Z,10.00
2022-11-05T13:32:39.508Z,9.90
2022-11-05T13:35:07.324Z,12.03
2022-11-05T13:37:58.176Z,12.43
2022-11-05T13:40:40.446Z,10.80
2022-11-05T13:43:16.810Z,8.67
2022-11-05T13:46:16.099Z,11.00
2022-11-05T13:49:32.728Z,10.03
2022-11-05T13:52:19.185Z,9.70
2022-11-05T13:55:18.877Z,7.50
2022-11-05T13:58:15.680Z,9.90
2022-11-05T14:01:07.785Z,6.10
2022-11-05T14:03:30.303Z,6.17
2022-11-05T14:06:12.562Z,5.63
2022-11-05T14:08:43.099Z,7.30
2022-11-05T14:11:26.270Z,6.63
2022-11-05T14:13:56.916Z,6.80
2022-11-05T14:16:23.281Z,6.17
2022-11-05T14:18:47.813Z,9.00
2022-11-05T14:23:59.610Z,8.60
2022-11-05T14:26:30.635Z,8.60
2022-11-05T14:29:04.692Z,6.97
2022-11-05T14:34:46.487Z,5.47
2022-11-05T14:37:11.345Z,4.70
2022-11-05T14:39:33.323Z,6.07
2022-11-05T14:42:06.324Z,4.53
2022-11-05T14:44:31.070Z,5.77
2022-11-05T14:46:59.716Z,5.93
2022-11-05T14:49:29.361Z,5.03
2022-11-05T14:52:05.536Z,5.43
2022-11-05T14:54:49.021Z,8.53
2022-11-05T14:57:41.804Z,8.67
2022-11-05T15:00:05.995Z,5.87
2022-11-05T15:02:37.429Z,8.02
2022-11-05T15:05:47.152Z,6.47
2022-11-05T15:08:26.954Z,7.43
2022-11-05T15:10:50.673Z,6.47
2022-11-05T15:13:37.637Z,7.28
2022-11-05T15:15:59.764Z,5.03
2022-11-05T15:18:42.657Z,6.97
2022-11-05T15:21:10.637Z,9.00
2022-11-05T15:23:44.384Z,6.70
2022-11-05T15:26:23.742Z,7.20
2022-11-05T15:28:54.208Z,7.03
2022-11-05T15:31:16.142Z,6.83
2022-11-05T15:33:39.192Z,8.23
2022-11-05T15:36:28.465Z,7.90
2022-11-05T15:39:15.059Z,7.20
2022-11-05T15:41:34.446Z,6.30
2022-11-05T15:43:56.619Z,9.20
2022-11-05T15:46:30.879Z,8.77
2022-11-05T15:48:58.242Z,8.05
2022-11-05T15:51:24.589Z,8.73
2022-11-05T15:54:15.652Z,7.47
2022-11-05T15:56:47.022Z,6.18
2022-11-05T15:59:19.907Z,6.87
2022-11-05T16:02:19.904Z,5.20
2022-11-05T16:04:48.679Z,8.23
2022-11-05T16:07:12.157Z,9.27
2022-11-05T16:09:40.138Z,8.60
2022-11-05T16:12:20.252Z,7.77
2022-11-05T16:14:42.572Z,6.73
2022-11-05T16:17:23.568Z,15.00
2022-11-05T16:19:46.967Z,25.30
2022-11-05T16:22:08.860Z,35.50
2022-11-05T16:24:31.160Z,22.83
2022-11-05T16:27:03.273Z,14.27
2022-11-05T16:29:50.417Z,11.27
2022-11-05T16:32:29.538Z,8.27
2022-11-05T16:35:04.831Z,7.17
2022-11-05T16:37:37.676Z,8.02
2022-11-05T16:39:59.695Z,5.20
2022-11-05T16:42:24.803Z,8.10
2022-11-05T16:44:46.661Z,7.50
2022-11-05T16:47:08.616Z,6.07
2022-11-05T16:49:30.459Z,8.33
2022-11-05T16:51:52.633Z,6.13
2022-11-05T16:54:14.548Z,7.43
2022-11-05T16:56:37.031Z,9.20
2022-11-05T16:58:59.682Z,6.43
2022-11-05T17:01:23.932Z,6.00
2022-11-05T17:03:47.636Z,6.78
2022-11-05T17:06:09.562Z,6.90
2022-11-05T17:08:31.506Z,7.63
2022-11-05T17:10:53.338Z,6.10
2022-11-05T17:13:17.714Z,6.00
2022-11-05T17:15:39.614Z,6.43
2022-11-05T17:18:03.700Z,7.47
2022-11-05T17:20:25.441Z,5.05
2022-11-05T17:22:47.333Z,8.60
2022-11-05T17:25:09.380Z,9.83
2022-11-05T17:27:31.200Z,7.37
2022-11-05T17:29:53.051Z,7.60
2022-11-05T17:32:14.959Z,8.00
2022-11-05T17:34:36.943Z,9.53
2022-11-05T17:36:58.808Z,8.30
2022-11-05T17:39:20.668Z,7.47
2022-11-05T17:41:43.395Z,8.73
2022-11-05T17:44:05.300Z,9.20
2022-11-05T17:46:28.038Z,7.73
2022-11-05T17:48:50.214Z,6.70
2022-11-05T17:51:17.275Z,8.60
2022-11-05T17:53:39.513Z,6.10
2022-11-05T17:56:01.775Z,9.80
2022-11-05T17:58:23.831Z,11.43
2022-11-05T18:00:47.291Z,7.53
2022-11-05T18:03:11.682Z,8.47
2022-11-05T18:05:35.026Z,7.53
2022-11-05T18:07:57.769Z,7.33
2022-11-05T18:10:20.022Z,7.90
2022-11-05T18:12:42.708Z,6.07
2022-11-05T18:15:06.250Z,6.83
2022-11-05T18:17:28.426Z,11.40
2022-11-05T18:19:50.429Z,7.07
2022-11-05T18:22:12.255Z,12.53
2022-11-05T18:24:34.354Z,9.60
2022-11-05T18:26:56.139Z,7.23
2022-11-05T18:29:17.969Z,6.87
2022-11-05T18:31:39.851Z,9.40
2022-11-05T18:34:02.058Z,10.47
2022-11-05T18:36:29.647Z,8.93
2022-11-05T18:38:52.800Z,10.57
2022-11-05T18:41:16.149Z,8.63
2022-11-05T18:43:37.963Z,7.13
2022-11-05T18:45:59.917Z,8.97
2022-11-05T18:48:21.967Z,8.03
2022-11-05T18:50:43.813Z,7.30
2022-11-05T18:53:05.639Z,6.93
2022-11-05T18:55:27.558Z,6.00
2022-11-05T18:57:49.647Z,8.50
2022-11-05T19:00:12.673Z,7.87
2022-11-05T19:02:34.646Z,10.13
2022-11-05T19:07:39.930Z,6.37
2022-11-05T19:10:01.834Z,5.50
2022-11-05T19:12:23.701Z,9.63
2022-11-05T19:14:46.015Z,15.00
2022-11-05T19:17:07.890Z,8.70
2022-11-05T19:19:29.776Z,11.97
2022-11-05T19:21:52.359Z,10.37
2022-11-05T19:24:17.467Z,12.50
2022-11-05T19:26:39.400Z,16.33
2022-11-05T19:29:03.707Z,9.90
2022-11-05T19:31:27.092Z,11.43
2022-11-05T19:33:52.128Z,9.87
2022-11-05T19:36:16.506Z,9.40
2022-11-05T19:38:40.020Z,8.25
2022-11-05T19:41:12.083Z,11.53
2022-11-05T19:43:36.311Z,8.97
2022-11-05T19:45:58.121Z,9.60
2022-11-05T19:48:21.066Z,12.27
2022-11-05T19:50:44.450Z,10.17
2022-11-05T19:53:06.896Z,11.13
2022-11-05T19:55:28.751Z,10.23
2022-11-05T19:57:50.650Z,8.00
2022-11-05T20:00:14.000Z,9.70
2022-11-05T20:02:35.885Z,10.43
2022-11-05T20:04:57.854Z,9.93
2022-11-05T20:07:20.419Z,8.63
2022-11-05T20:09:42.509Z,10.93
2022-11-05T20:12:04.505Z,8.47
2022-11-05T20:14:27.282Z,14.80
2022-11-05T20:16:50.509Z,12.77
2022-11-05T20:19:19.861Z,10.00
2022-11-05T20:21:42.636Z,10.87
2022-11-05T20:24:05.170Z,13.40
2022-11-05T20:26:27.611Z,13.40
2022-11-05T20:28:49.660Z,14.67
2022-11-05T20:31:18.002Z,12.73
2022-11-05T20:33:41.675Z,12.47
2022-11-05T20:36:08.071Z,10.35
2022-11-05T20:38:30.332Z,12.13
2022-11-05T20:40:52.309Z,16.93
2022-11-05T20:43:14.174Z,10.47
2022-11-05T20:45:38.339Z,12.30
2022-11-05T20:48:00.174Z,10.88
2022-11-05T20:50:21.999Z,13.10
2022-11-05T20:52:43.949Z,13.07
2022-11-05T20:55:09.101Z,14.00
2022-11-05T20:57:31.077Z,12.00
2022-11-05T20:59:53.042Z,13.77
2022-11-05T21:02:15.042Z,13.80
2022-11-05T21:04:37.408Z,14.10
2022-11-05T21:06:59.307Z,11.47
2022-11-05T21:09:21.549Z,11.73
2022-11-05T21:12:01.765Z,10.20
2022-11-05T21:14:23.800Z,11.53
2022-11-05T21:16:45.713Z,9.80
2022-11-05T21:19:08.015Z,11.07
2022-11-05T21:21:29.809Z,11.03
2022-11-05T21:23:51.616Z,10.30
2022-11-05T21:26:15.314Z,14.87
2022-11-05T21:28:40.178Z,10.70
2022-11-05T21:31:05.063Z,8.17
2022-11-05T21:33:27.299Z,9.77
2022-11-05T21:35:49.246Z,13.90
2022-11-05T21:38:14.197Z,11.40
2022-11-05T21:40:36.816Z,12.37
2022-11-05T21:42:58.590Z,10.93
2022-11-05T21:45:20.392Z,11.80
2022-11-05T21:47:42.614Z,11.67
2022-11-05T21:50:04.741Z,10.10
2022-11-05T21:52:44.952Z,9.23
2022-11-05T21:55:25.687Z,11.20
2022-11-05T21:58:05.949Z,10.00
2022-11-05T22:00:27.827Z,11.87
2022-11-05T22:02:49.779Z,11.13
2022-11-05T22:05:11.998Z,9.70
2022-11-05T22:07:37.872Z,10.60
2022-11-05T22:10:00.287Z,11.20
2022-11-05T22:12:22.848Z,10.90
2022-11-05T22:14:44.701Z,10.23
2022-11-05T22:17:07.789Z,10.83
2022-11-05T22:19:30.906Z,10.87
2022-11-05T22:21:53.216Z,10.67
2022-11-05T22:24:15.965Z,11.10
2022-11-05T22:26:39.710Z,10.37
2022-11-05T22:29:01.600Z,11.70
2022-11-05T22:31:23.484Z,11.07
2022-11-05T22:33:45.256Z,10.57
2022-11-05T22:36:07.894Z,11.00
2022-11-05T22:38:31.107Z,10.30
2022-11-05T22:40:52.990Z,11.10
2022-11-05T22:43:14.763Z,12.20
2022-11-05T22:45:37.275Z,8.47
2022-11-05T22:48:00.698Z,12.30
2022-11-05T22:50:25.751Z,11.13
2022-11-05T22:52:47.594Z,9.23
2022-11-05T22:55:09.910Z,10.07
2022-11-05T22:57:32.216Z,11.50
2022-11-05T22:59:54.046Z,10.03
2022-11-05T23:02:16.086Z,7.50
2022-11-05T23:04:38.735Z,13.77
2022-11-05T23:07:27.670Z,7.23
2022-11-05T23:10:08.128Z,8.67
2022-11-05T23:12:39.936Z,12.17
2022-11-05T23:15:06.046Z,9.67
2022-11-05T23:17:47.443Z,10.07
2022-11-05T23:20:35.803Z,9.63
2022-11-05T23:23:17.104Z,11.67
2022-11-05T23:25:39.006Z,9.50
2022-11-05T23:28:07.690Z,8.50
2022-11-05T23:30:29.927Z,9.17
2022-11-05T23:32:53.465Z,11.73
2022-11-05T23:35:16.463Z,9.20
2022-11-05T23:37:57.005Z,10.07
2022-11-05T23:40:23.643Z,8.20
2022-11-05T23:43:04.885Z,8.37
2022-11-05T23:45:45.761Z,10.43
2022-11-05T23:48:21.316Z,11.77
2022-11-05T23:50:57.434Z,9.53
2022-11-05T23:53:20.077Z,11.17
2022-11-05T23:55:42.353Z,8.50
2022-11-05T23:58:04.232Z,9.40
